01 | 10 | 2020

Daten Vortag

Klimadaten von 10m Höhe gemessen, Station 

Datum / Zeit Intervall min Luftfeuchte % Temperatur °C absolut Luftdruck hPa Wind m/s Windbö m/s Richtung Relative Luftdruck hPa Taupunkt °C Windchill °C Niederschlag mm
30-09-2020 00:15 5 99 6.4 1016.6 0.0 0.0 SW 1017.5 6.3 6.4 0.0
30-09-2020 00:20 5 99 6.3 1016.6 0.0 0.0 SW 1017.5 6.2 6.3 0.0
30-09-2020 00:25 5 99 6.4 1016.8 0.0 0.0 SW 1017.7 6.3 6.4 0.0
30-09-2020 00:30 5 99 6.5 1016.6 1.1 2.5 E 1017.5 6.4 6.5 0.0
30-09-2020 00:35 5 99 6.5 1016.5 0.0 1.1 E 1017.4 6.4 6.5 0.0
30-09-2020 00:40 5 99 6.5 1016.6 0.0 0.0 SW 1017.5 6.4 6.5 0.0
30-09-2020 00:45 5 99 6.6 1016.6 0.0 0.0 SW 1017.5 6.5 6.6 0.0
30-09-2020 00:50 5 99 6.6 1016.6 0.0 0.0 SW 1017.5 6.5 6.6 0.0
30-09-2020 00:55 5 99 6.6 1016.5 0.0 0.0 SW 1017.4 6.5 6.6 0.0
30-09-2020 01:00 5 99 6.5 1016.7 0.0 0.0 SW 1017.6 6.4 6.5 0.0
30-09-2020 01:05 5 99 6.5 1016.6 0.0 0.0 NW 1017.5 6.4 6.5 0.0
30-09-2020 01:10 5 99 6.4 1016.6 0.0 0.0 NW 1017.5 6.3 6.4 0.0
30-09-2020 01:15 5 99 6.5 1016.7 0.0 0.0 N 1017.6 6.4 6.5 0.0
30-09-2020 01:20 5 99 6.5 1016.6 1.1 2.5 NE 1017.5 6.4 6.5 0.0
30-09-2020 01:25 5 99 6.4 1016.6 0.0 0.0 NE 1017.5 6.3 6.4 0.0
30-09-2020 01:30 5 99 6.6 1016.3 1.1 3.6 NE 1017.2 6.5 6.6 0.0
30-09-2020 01:35 5 99 6.8 1016.2 0.0 1.1 NE 1017.1 6.7 6.8 0.0
30-09-2020 01:40 5 99 6.9 1016.3 1.1 2.5 E 1017.2 6.8 6.9 0.0
30-09-2020 01:45 5 99 7.1 1016.2 0.0 0.0 E 1017.1 7.0 7.1 0.0
30-09-2020 01:50 5 99 7.1 1016.0 0.0 1.1 E 1016.9 7.0 7.1 0.0
30-09-2020 01:55 5 99 7.0 1016.1 0.0 0.0 E 1017.0 6.9 7.0 0.0
30-09-2020 02:00 5 99 7.0 1016.2 1.1 1.1 W 1017.1 6.9 7.0 0.0
30-09-2020 02:05 5 99 6.8 1016.1 0.0 0.0 NW 1017.0 6.7 6.8 0.0
30-09-2020 02:10 5 99 6.8 1016.1 0.0 0.0 NW 1017.0 6.7 6.8 0.0
30-09-2020 02:15 5 99 6.5 1016.1 0.0 0.0 E 1017.0 6.4 6.5 0.0
30-09-2020 02:20 5 99 6.5 1016.0 0.0 0.0 E 1016.9 6.4 6.5 0.0
30-09-2020 02:25 5 99 6.4 1016.0 0.0 0.0 E 1016.9 6.3 6.4 0.0
30-09-2020 02:30 5 99 6.4 1015.9 0.0 0.0 E 1016.8 6.3 6.4 0.0
30-09-2020 02:35 5 99 6.2 1016.0 0.0 0.0 NE 1016.9 6.1 6.2 0.0
30-09-2020 02:40 5 99 6.0 1015.9 0.0 1.1 NW 1016.8 5.9 6.0 0.0
30-09-2020 02:45 5 99 5.5 1016.0 0.0 0.0 W 1016.9 5.4 5.5 0.0
30-09-2020 02:50 5 99 5.4 1015.8 0.0 0.0 W 1016.7 5.3 5.4 0.0
30-09-2020 02:55 5 99 5.3 1015.7 0.0 0.0 W 1016.6 5.2 5.3 0.0
30-09-2020 03:00 5 99 5.5 1015.8 0.0 0.0 W 1016.7 5.4 5.5 0.0
30-09-2020 03:05 5 99 5.4 1015.6 0.0 0.0 W 1016.5 5.3 5.4 0.0
30-09-2020 03:10 5 99 5.3 1015.7 0.0 0.0 W 1016.6 5.2 5.3 0.0
30-09-2020 03:15 5 99 5.2 1015.5 0.0 0.0 W 1016.4 5.1 5.2 0.0
30-09-2020 03:20 5 99 5.2 1015.7 0.0 0.0 W 1016.6 5.1 5.2 0.0
30-09-2020 03:25 5 99 5.2 1015.7 0.0 0.0 W 1016.6 5.1 5.2 0.0
30-09-2020 03:30 5 99 5.1 1015.7 0.0 0.0 W 1016.6 5.0 5.1 0.0
30-09-2020 03:35 5 99 5.1 1015.7 0.0 0.0 W 1016.6 5.0 5.1 0.0
30-09-2020 03:40 5 99 5.1 1015.7 0.0 0.0 W 1016.6 5.0 5.1 0.0
30-09-2020 03:45 5 99 5.0 1015.5 0.0 0.0 NE 1016.4 4.9 5.0 0.0
30-09-2020 03:50 5 99 5.1 1015.6 0.0 0.0 NE 1016.5 5.0 5.1 0.0
30-09-2020 03:55 5 99 5.1 1015.5 2.5 2.5 NE 1016.4 5.0 5.1 0.0
30-09-2020 04:00 5 99 5.2 1015.4 1.1 2.5 NE 1016.3 5.1 5.2 0.0
30-09-2020 04:05 5 99 5.4 1015.5 2.5 3.6 E 1016.4 5.3 5.4 0.0
30-09-2020 04:10 5 99 5.4 1015.4 2.5 3.6 E 1016.3 5.3 5.4 0.0
30-09-2020 04:15 5 99 5.9 1015.4 0.0 0.0 NW 1016.3 5.8 5.9 0.0
30-09-2020 04:20 5 99 5.9 1015.3 0.0 0.0 NW 1016.2 5.8 5.9 0.0
30-09-2020 04:25 5 99 6.0 1015.5 0.0 0.0 NW 1016.4 5.9 6.0 0.0
30-09-2020 04:30 5 99 6.0 1015.6 0.0 0.0 W 1016.5 5.9 6.0 0.0
30-09-2020 04:35 5 99 6.0 1015.4 0.0 0.0 NE 1016.3 5.9 6.0 0.0
30-09-2020 04:40 5 99 6.1 1015.4 0.0 0.0 W 1016.3 6.0 6.1 0.0
30-09-2020 04:45 5 99 6.1 1015.3 0.0 0.0 W 1016.2 6.0 6.1 0.0
30-09-2020 04:50 5 99 6.1 1015.4 1.1 2.5 E 1016.3 6.0 6.1 0.0
30-09-2020 04:55 5 99 6.1 1015.4 0.0 0.0 E 1016.3 6.0 6.1 0.0
30-09-2020 05:00 5 99 6.0 1015.5 0.0 0.0 E 1016.4 5.9 6.0 0.0
30-09-2020 05:05 5 99 6.0 1015.5 0.0 0.0 E 1016.4 5.9 6.0 0.0
30-09-2020 05:10 5 99 6.0 1015.3 0.0 0.0 SE 1016.2 5.9 6.0 0.0
30-09-2020 05:15 5 99 6.1 1015.4 0.0 0.0 SE 1016.3 6.0 6.1 0.0
30-09-2020 05:20 5 99 6.3 1015.3 1.1 1.1 E 1016.2 6.2 6.3 0.0
30-09-2020 05:25 5 99 6.3 1015.2 0.0 0.0 S 1016.1 6.2 6.3 0.0
30-09-2020 05:30 5 99 6.2 1015.2 0.0 0.0 E 1016.1 6.1 6.2 0.0
30-09-2020 05:35 5 99 6.0 1015.1 0.0 0.0 E 1016.0 5.9 6.0 0.0
30-09-2020 05:40 5 99 5.8 1015.2 0.0 0.0 E 1016.1 5.7 5.8 0.0
30-09-2020 05:45 5 99 5.8 1015.2 0.0 0.0 SW 1016.1 5.7 5.8 0.0
30-09-2020 05:50 5 99 5.7 1015.1 0.0 0.0 SW 1016.0 5.6 5.7 0.0
30-09-2020 05:55 5 99 5.6 1015.2 0.0 0.0 N 1016.1 5.5 5.6 0.0
30-09-2020 06:00 5 99 5.6 1015.2 0.0 0.0 N 1016.1 5.5 5.6 0.0
30-09-2020 06:05 5 99 5.6 1015.2 0.0 0.0 N 1016.1 5.5 5.6 0.0
30-09-2020 06:10 5 99 5.4 1015.1 0.0 0.0 SW 1016.0 5.3 5.4 0.0
30-09-2020 06:15 5 99 5.2 1015.1 0.0 0.0 SW 1016.0 5.1 5.2 0.0
30-09-2020 06:20 5 99 5.0 1015.1 0.0 0.0 SW 1016.0 4.9 5.0 0.0
30-09-2020 06:25 5 99 5.0 1015.1 0.0 0.0 SE 1016.0 4.9 5.0 0.0
30-09-2020 06:30 5 99 5.1 1015.1 0.0 0.0 SE 1016.0 5.0 5.1 0.0
30-09-2020 06:35 5 99 5.3 1015.1 0.0 0.0 SE 1016.0 5.2 5.3 0.0
30-09-2020 06:40 5 99 5.3 1015.1 0.0 0.0 SE 1016.0 5.2 5.3 0.0
30-09-2020 06:45 5 99 5.2 1015.1 0.0 0.0 SE 1016.0 5.1 5.2 0.0
30-09-2020 06:50 5 99 5.1 1015.2 0.0 0.0 SE 1016.1 5.0 5.1 0.0
30-09-2020 06:55 5 99 5.1 1015.3 0.0 0.0 SE 1016.2 5.0 5.1 0.0
30-09-2020 07:00 5 99 5.1 1015.2 0.0 0.0 SE 1016.1 5.0 5.1 0.0
30-09-2020 07:05 5 99 5.2 1015.3 0.0 0.0 NW 1016.2 5.1 5.2 0.0
30-09-2020 07:10 5 99 5.1 1015.3 0.0 0.0 NW 1016.2 5.0 5.1 0.0
30-09-2020 07:15 5 99 4.9 1015.4 0.0 0.0 SW 1016.3 4.8 4.9 0.0
30-09-2020 07:20 5 99 4.8 1015.5 0.0 1.1 W 1016.4 4.7 4.8 0.0
30-09-2020 07:25 5 99 4.8 1015.4 0.0 0.0 NW 1016.3 4.7 4.8 0.0
30-09-2020 07:30 5 99 4.7 1015.5 0.0 0.0 N 1016.4 4.6 4.7 0.0
30-09-2020 07:35 5 99 4.8 1015.5 0.0 1.1 NE 1016.4 4.7 4.8 0.0
30-09-2020 07:40 5 99 4.9 1015.4 0.0 1.1 NE 1016.3 4.8 4.9 0.0
30-09-2020 07:45 5 99 5.0 1015.5 0.0 0.0 E 1016.4 4.9 5.0 0.0
30-09-2020 07:50 5 99 5.2 1015.5 0.0 1.1 NW 1016.4 5.1 5.2 0.0
30-09-2020 07:55 5 99 5.3 1015.5 0.0 0.0 NW 1016.4 5.2 5.3 0.0
30-09-2020 08:00 5 99 5.5 1015.5 0.0 0.0 NW 1016.4 5.4 5.5 0.0
30-09-2020 08:05 5 99 5.6 1015.5 0.0 0.0 NW 1016.4 5.5 5.6 0.0
30-09-2020 08:10 5 99 5.9 1015.7 0.0 0.0 NE 1016.6 5.8 5.9 0.0
30-09-2020 08:15 5 99 6.0 1015.9 0.0 0.0 NW 1016.8 5.9 6.0 0.0
30-09-2020 08:20 5 99 6.2 1015.8 0.0 0.0 NW 1016.7 6.1 6.2 0.0
30-09-2020 08:25 5 99 6.4 1015.8 0.0 0.0 W 1016.7 6.3 6.4 0.0
30-09-2020 08:30 5 99 6.6 1015.8 0.0 0.0 SW 1016.7 6.5 6.6 0.0
30-09-2020 08:35 5 99 7.0 1015.9 0.0 0.0 SW 1016.8 6.9 7.0 0.0
30-09-2020 08:40 5 99 7.4 1015.9 0.0 0.0 NW 1016.8 7.3 7.4 0.0
30-09-2020 08:45 5 99 7.8 1016.0 0.0 0.0 NW 1016.9 7.7 7.8 0.0
30-09-2020 08:50 5 99 8.3 1015.9 0.0 0.0 NW 1016.8 8.2 8.3 0.3
30-09-2020 08:55 5 99 8.4 1016.0 0.0 0.0 SW 1016.9 8.3 8.4 0.3
30-09-2020 09:00 5 99 8.5 1016.0 0.0 1.1 SW 1016.9 8.4 8.5 0.3
30-09-2020 09:05 5 99 8.6 1016.0 0.0 0.0 W 1016.9 8.5 8.6 0.3
30-09-2020 09:10 5 99 9.4 1016.0 0.0 0.0 W 1016.9 9.3 9.4 0.3
30-09-2020 09:15 5 99 10.3 1016.0 0.0 0.0 W 1016.9 10.2 10.3 0.3
30-09-2020 09:20 5 99 11.5 1016.0 0.0 0.0 W 1016.9 11.4 11.5 0.3
30-09-2020 09:25 5 99 12.8 1016.0 0.0 0.0 SE 1016.9 12.7 12.8 0.3
30-09-2020 09:30 5 99 13.5 1016.0 1.1 2.5 E 1016.9 13.4 13.5 0.3
30-09-2020 09:35 5 99 13.3 1015.9 0.0 0.0 W 1016.8 13.2 13.3 0.3
30-09-2020 09:40 5 99 13.9 1016.1 1.1 2.5 E 1017.0 13.8 13.9 0.3
30-09-2020 09:45 5 99 14.2 1016.0 2.5 3.6 E 1016.9 14.1 14.2 0.3
30-09-2020 09:50 5 96 14.0 1016.1 0.0 0.0 S 1017.0 13.4 14.0 0.0
30-09-2020 09:55 5 92 14.5 1016.0 1.1 2.5 SE 1016.9 13.2 14.5 0.0
30-09-2020 10:00 5 89 14.8 1016.1 1.1 2.5 SE 1017.0 13.0 14.8 0.0
30-09-2020 10:05 5 86 15.2 1015.9 0.0 1.1 SE 1016.8 12.9 15.2 0.0
30-09-2020 10:10 5 81 16.0 1015.8 0.0 1.1 N 1016.7 12.8 16.0 0.0
30-09-2020 10:15 5 76 16.3 1015.9 1.1 2.5 W 1016.8 12.1 16.3 0.0
30-09-2020 10:20 5 76 16.6 1016.0 0.0 0.0 S 1016.9 12.4 16.6 0.0
30-09-2020 10:25 5 75 17.3 1016.0 0.0 1.1 S 1016.9 12.8 17.3 0.0
30-09-2020 10:30 5 71 17.6 1016.0 0.0 1.1 E 1016.9 12.3 17.6 0.0
30-09-2020 10:35 5 70 17.5 1015.9 1.1 2.5 S 1016.8 12.0 17.5 0.0
30-09-2020 10:40 5 70 17.8 1016.0 2.5 3.6 S 1016.9 12.3 17.8 0.0
30-09-2020 10:45 5 70 17.3 1016.0 3.6 3.6 SE 1016.9 11.8 17.3 0.0
30-09-2020 10:50 5 70 17.5 1016.1 1.1 3.6 E 1017.0 12.0 17.5 0.0
30-09-2020 10:55 5 67 17.5 1016.0 3.6 5.0 SE 1016.9 11.3 17.5 0.0
30-09-2020 11:00 5 66 17.6 1015.9 3.6 5.0 S 1016.8 11.2 17.6 0.0
30-09-2020 11:05 5 66 18.1 1015.9 3.6 5.0 S 1016.8 11.7 18.1 0.0
30-09-2020 11:10 5 65 18.3 1015.9 2.5 3.6 SE 1016.8 11.6 18.3 0.0
30-09-2020 11:15 5 64 18.5 1015.9 1.1 3.6 SE 1016.8 11.6 18.5 0.0
30-09-2020 11:20 5 63 18.7 1015.8 3.6 5.0 SE 1016.7 11.5 18.7 0.0
30-09-2020 11:25 5 63 18.9 1015.9 1.1 2.5 S 1016.8 11.7 18.9 0.0
30-09-2020 11:30 5 62 19.5 1015.9 0.0 1.1 SW 1016.8 12.1 19.5 0.0
30-09-2020 11:35 5 60 20.1 1015.8 3.6 5.0 SW 1016.7 12.1 20.1 0.0
30-09-2020 11:40 5 60 20.0 1015.9 1.1 3.6 SE 1016.8 12.0 20.0 0.0
30-09-2020 11:45 5 60 20.3 1015.8 5.0 7.2 S 1016.7 12.3 20.3 0.0
30-09-2020 11:50 5 59 20.1 1015.8 5.0 6.1 SE 1016.7 11.9 20.1 0.0
30-09-2020 11:55 5 59 19.7 1015.8 3.6 5.0 S 1016.7 11.5 19.7 0.0
30-09-2020 12:00 5 60 19.7 1015.7 3.6 5.0 SW 1016.6 11.7 19.7 0.0
30-09-2020 12:05 5 60 19.7 1015.7 3.6 5.0 SE 1016.6 11.7 19.7 0.0
30-09-2020 12:10 5 61 20.0 1015.7 2.5 3.6 S 1016.6 12.3 20.0 0.0
30-09-2020 12:15 5 59 20.1 1015.9 1.1 3.6 S 1016.8 11.9 20.1 0.0
30-09-2020 12:20 5 60 20.2 1015.7 5.0 7.2 E 1016.6 12.2 20.2 0.0
30-09-2020 12:25 5 60 20.2 1015.7 3.6 6.1 SE 1016.6 12.2 20.2 0.0
30-09-2020 12:30 5 60 20.0 1015.7 6.1 8.6 S 1016.6 12.0 20.0 0.0
30-09-2020 12:35 5 60 19.8 1015.8 3.6 5.0 E 1016.7 11.8 19.8 0.0
30-09-2020 12:37 5 59 19.9 1015.7 6.1 7.2 SE 1016.6 11.7 19.9 0.0
30-09-2020 12:46 5 60 20.3 1015.7 7.2 11.2 E 1016.6 12.3 19.7 0.0
30-09-2020 12:51 5 60 20.4 1015.8 3.6 6.1 S 1016.7 12.4 20.4 0.0
30-09-2020 12:56 5 60 20.4 1015.6 2.5 5.0 SE 1016.5 12.4 20.4 0.0
30-09-2020 13:01 5 58 20.5 1015.6 2.5 5.0 SW 1016.5 12.0 20.5 0.0
30-09-2020 13:06 5 57 20.6 1015.7 3.6 6.1 E 1016.6 11.8 20.6 0.0
30-09-2020 13:11 5 55 20.3 1015.6 6.1 8.6 NW 1016.5 11.0 20.3 0.0
30-09-2020 13:16 5 56 20.4 1015.6 5.0 6.1 S 1016.5 11.4 20.4 0.0
30-09-2020 13:21 5 56 20.5 1015.6 3.6 9.7 NEE 1016.5 11.4 20.5 0.0
30-09-2020 13:26 5 55 20.5 1015.5 7.2 8.6 S 1016.4 11.2 19.9 0.0
30-09-2020 13:31 5 54 20.6 1015.4 3.6 6.1 S 1016.3 11.0 20.6 0.0
30-09-2020 13:36 5 55 20.9 1015.5 5.0 6.1 S 1016.4 11.5 20.9 0.0
30-09-2020 13:41 5 52 21.0 1015.4 6.1 8.6 S 1016.3 10.8 21.0 0.0
30-09-2020 13:46 5 52 20.5 1015.4 6.1 8.6 SE 1016.3 10.3 20.5 0.0
30-09-2020 13:51 5 53 20.7 1015.4 5.0 7.2 E 1016.3 10.8 20.7 0.0
30-09-2020 13:56 5 54 20.9 1015.3 1.1 2.5 SE 1016.2 11.3 20.9 0.0
30-09-2020 14:01 5 53 21.1 1015.3 3.6 6.1 SE 1016.2 11.2 21.1 0.0
30-09-2020 14:06 5 54 21.1 1015.2 5.0 6.1 SW 1016.1 11.5 21.1 0.0
30-09-2020 14:11 5 52 21.0 1015.2 3.6 5.0 S 1016.1 10.8 21.0 0.0
30-09-2020 14:16 5 53 21.3 1015.3 3.6 6.1 E 1016.2 11.4 21.3 0.0
30-09-2020 14:21 5 53 21.3 1015.2 3.6 6.1 N 1016.1 11.4 21.3 0.0
30-09-2020 14:26 5 52 21.0 1015.2 7.2 9.7 SW 1016.1 10.8 20.4 0.0
30-09-2020 14:31 5 53 21.1 1015.1 3.6 8.6 S 1016.0 11.2 21.1 0.0
30-09-2020 14:36 5 51 21.0 1015.2 3.6 5.0 S 1016.1 10.5 21.0 0.0
30-09-2020 14:41 5 52 21.2 1015.1 5.0 7.2 S 1016.0 11.0 21.2 0.0
30-09-2020 14:46 5 52 21.0 1015.2 6.1 7.2 S 1016.1 10.8 21.0 0.0
30-09-2020 14:51 5 54 21.2 1015.0 3.6 6.1 SE 1015.9 11.6 21.2 0.0
30-09-2020 14:56 5 54 21.4 1015.1 6.1 8.6 SE 1016.0 11.7 21.4 0.0
30-09-2020 15:01 5 53 21.1 1014.8 2.5 3.6 SE 1015.7 11.2 21.1 0.0
30-09-2020 15:06 5 52 21.7 1014.9 3.6 5.0 SE 1015.8 11.4 21.7 0.0
30-09-2020 15:11 5 52 21.5 1014.9 7.2 8.6 S 1015.8 11.3 20.9 0.0
30-09-2020 15:16 5 52 21.2 1014.8 3.6 5.0 SE 1015.7 11.0 21.2 0.0
30-09-2020 15:21 5 52 21.2 1014.9 7.2 9.7 SSE 1015.8 11.0 20.6 0.0
30-09-2020 15:26 5 53 21.2 1014.8 2.5 2.5 S 1015.7 11.3 21.2 0.0
30-09-2020 15:31 5 53 21.4 1014.8 2.5 3.6 S 1015.7 11.5 21.4 0.0
30-09-2020 15:36 5 52 21.4 1014.8 5.0 6.1 SE 1015.7 11.2 21.4 0.0
30-09-2020 15:41 5 54 21.4 1014.9 3.6 5.0 S 1015.8 11.7 21.4 0.0
30-09-2020 15:46 5 53 21.4 1014.7 2.5 3.6 S 1015.6 11.5 21.4 0.0
30-09-2020 15:51 5 54 21.6 1014.6 5.0 6.1 SE 1015.5 11.9 21.6 0.0
30-09-2020 15:56 5 52 21.4 1014.5 3.6 6.1 SSE 1015.4 11.2 21.4 0.0
30-09-2020 16:01 5 53 21.4 1014.5 5.0 6.1 SE 1015.4 11.5 21.4 0.0
30-09-2020 16:06 5 53 21.5 1014.4 5.0 7.2 S 1015.3 11.5 21.5 0.0
30-09-2020 16:11 5 53 21.5 1014.4 5.0 7.2 S 1015.3 11.5 21.5 0.0
30-09-2020 16:16 5 53 21.1 1014.4 7.2 8.6 S 1015.3 11.2 20.5 0.0
30-09-2020 16:21 5 54 21.3 1014.3 1.1 2.5 S 1015.2 11.6 21.3 0.0
30-09-2020 16:26 5 54 21.7 1014.3 1.1 2.5 S 1015.2 12.0 21.7 0.0
30-09-2020 16:31 5 53 21.7 1014.3 6.1 7.2 SE 1015.2 11.7 21.7 0.0
30-09-2020 16:36 5 53 21.5 1014.3 3.6 5.0 SE 1015.2 11.5 21.5 0.0
30-09-2020 16:41 5 55 21.7 1014.4 5.0 7.2 SE 1015.3 12.3 21.7 0.0
30-09-2020 16:46 5 56 21.7 1014.3 2.5 5.0 S 1015.2 12.6 21.7 0.0
30-09-2020 16:51 5 55 21.9 1014.3 1.1 2.5 E 1015.2 12.5 21.9 0.0
30-09-2020 16:56 5 55 21.5 1014.2 5.0 6.1 S 1015.1 12.1 21.5 0.0
30-09-2020 17:01 5 58 21.4 1014.3 0.0 1.1 S 1015.2 12.8 21.4 0.0
30-09-2020 17:06 5 57 21.4 1014.3 1.1 2.5 SE 1015.2 12.6 21.4 0.0
30-09-2020 17:11 5 58 21.3 1014.3 1.1 2.5 S 1015.2 12.7 21.3 0.0
30-09-2020 17:16 5 57 21.2 1014.2 2.5 3.6 E 1015.1 12.4 21.2 0.0
30-09-2020 17:21 5 57 21.1 1014.1 0.0 1.1 SE 1015.0 12.3 21.1 0.0
30-09-2020 17:26 5 57 20.9 1014.2 2.5 3.6 E 1015.1 12.1 20.9 0.0
30-09-2020 17:31 5 58 20.3 1014.2 2.5 3.6 SE 1015.1 11.8 20.3 0.0
30-09-2020 17:36 5 60 19.7 1014.2 2.5 3.6 E 1015.1 11.7 19.7 0.0
30-09-2020 17:41 5 61 19.3 1014.2 1.1 2.5 SW 1015.1 11.6 19.3 0.0
30-09-2020 17:46 5 61 19.0 1014.0 2.5 3.6 E 1014.9 11.3 19.0 0.0
30-09-2020 17:51 5 62 18.7 1014.2 2.5 3.6 NEE 1015.1 11.3 18.7 0.0
30-09-2020 17:56 5 63 18.4 1013.9 2.5 3.6 E 1014.8 11.3 18.4 0.0
30-09-2020 18:01 5 63 18.3 1014.2 2.5 3.6 E 1015.1 11.2 18.3 0.0
30-09-2020 18:06 5 64 18.1 1014.1 2.5 5.0 NW 1015.0 11.2 18.1 0.0
30-09-2020 18:11 5 64 18.1 1014.0 2.5 5.0 NW 1014.9 11.2 18.1 0.0
30-09-2020 18:16 5 65 17.7 1014.1 1.1 3.6 E 1015.0 11.1 17.7 0.0
30-09-2020 18:21 5 70 17.4 1014.1 1.1 2.5 E 1015.0 11.9 17.4 0.0
30-09-2020 18:26 5 71 17.1 1014.1 0.0 1.1 E 1015.0 11.8 17.1 0.0
30-09-2020 18:31 5 71 16.9 1014.0 0.0 0.0 SW 1014.9 11.6 16.9 0.0
30-09-2020 18:36 5 71 16.5 1014.1 0.0 0.0 NE 1015.0 11.2 16.5 0.0
30-09-2020 18:41 5 72 16.2 1014.1 0.0 0.0 NE 1015.0 11.2 16.2 0.0
30-09-2020 18:46 5 73 15.9 1014.2 0.0 0.0 NE 1015.1 11.1 15.9 0.0
30-09-2020 18:51 5 73 15.5 1014.2 0.0 0.0 NE 1015.1 10.7 15.5 0.0
30-09-2020 18:56 5 74 15.0 1014.2 0.0 0.0 NE 1015.1 10.4 15.0 0.0
30-09-2020 19:01 5 75 14.6 1014.1 0.0 0.0 NE 1015.0 10.2 14.6 0.0
30-09-2020 19:06 5 76 14.2 1014.1 0.0 0.0 NE 1015.0 10.0 14.2 0.0
30-09-2020 19:11 5 77 14.0 1014.2 0.0 0.0 NE 1015.1 10.0 14.0 0.0
30-09-2020 19:16 5 78 13.8 1014.0 0.0 0.0 NE 1014.9 10.0 13.8 0.0
30-09-2020 19:21 5 80 13.7 1014.1 0.0 0.0 NE 1015.0 10.3 13.7 0.0
30-09-2020 19:26 5 80 13.5 1014.1 0.0 0.0 NE 1015.0 10.1 13.5 0.0
30-09-2020 19:31 5 80 13.2 1014.1 0.0 0.0 NE 1015.0 9.8 13.2 0.0
30-09-2020 19:36 5 80 13.0 1014.1 0.0 0.0 NE 1015.0 9.6 13.0 0.0
30-09-2020 19:41 5 81 12.8 1014.1 0.0 0.0 NE 1015.0 9.6 12.8 0.0
30-09-2020 19:46 5 82 12.7 1014.1 0.0 0.0 NE 1015.0 9.7 12.7 0.0
30-09-2020 19:51 5 83 12.6 1014.2 0.0 0.0 SW 1015.1 9.8 12.6 0.0
30-09-2020 19:56 5 87 12.3 1014.2 0.0 0.0 SW 1015.1 10.2 12.3 0.0
30-09-2020 20:01 5 87 12.0 1014.1 0.0 0.0 SW 1015.0 9.9 12.0 0.0
30-09-2020 20:06 5 87 11.9 1014.2 0.0 0.0 SW 1015.1 9.8 11.9 0.0
30-09-2020 20:11 5 87 11.9 1014.0 0.0 0.0 SW 1014.9 9.8 11.9 0.0
30-09-2020 20:16 5 88 11.3 1014.2 0.0 0.0 SW 1015.1 9.4 11.3 0.0
30-09-2020 20:21 5 89 11.2 1014.0 0.0 0.0 SW 1014.9 9.5 11.2 0.0
30-09-2020 20:26 5 90 11.1 1014.2 0.0 0.0 SW 1015.1 9.5 11.1 0.0
30-09-2020 20:31 5 90 11.0 1014.1 0.0 0.0 SW 1015.0 9.4 11.0 0.0
30-09-2020 20:36 5 91 10.8 1014.1 0.0 0.0 SW 1015.0 9.4 10.8 0.0
30-09-2020 20:41 5 91 10.7 1014.1 0.0 0.0 SW 1015.0 9.3 10.7 0.0
30-09-2020 20:46 5 91 10.7 1014.1 0.0 0.0 SW 1015.0 9.3 10.7 0.0
30-09-2020 20:51 5 91 10.5 1014.0 0.0 0.0 SW 1014.9 9.1 10.5 0.0
30-09-2020 20:56 5 91 10.3 1014.0 0.0 0.0 SW 1014.9 8.9 10.3 0.0
30-09-2020 21:01 5 92 10.1 1014.0 0.0 0.0 SW 1014.9 8.9 10.1 0.0
30-09-2020 21:06 5 92 10.0 1013.9 0.0 0.0 SW 1014.8 8.8 10.0 0.0
30-09-2020 21:11 5 92 10.0 1014.0 0.0 0.0 SW 1014.9 8.8 10.0 0.0
30-09-2020 21:16 5 92 10.1 1014.0 0.0 0.0 S 1014.9 8.9 10.1 0.0
30-09-2020 21:21 5 93 10.2 1014.1 0.0 0.0 SW 1015.0 9.1 10.2 0.0
30-09-2020 21:26 5 93 9.9 1014.1 0.0 0.0 SW 1015.0 8.8 9.9 0.0
30-09-2020 21:31 5 93 9.8 1014.0 0.0 0.0 SW 1014.9 8.7 9.8 0.0
30-09-2020 21:36 5 93 9.6 1014.0 0.0 0.0 W 1014.9 8.5 9.6 0.0
30-09-2020 21:41 5 93 9.5 1014.0 0.0 0.0 W 1014.9 8.4 9.5 0.0
30-09-2020 21:46 5 93 9.4 1014.0 0.0 0.0 W 1014.9 8.3 9.4 0.0
30-09-2020 21:51 5 94 9.4 1014.0 0.0 0.0 W 1014.9 8.5 9.4 0.0
30-09-2020 21:56 5 94 9.3 1014.1 0.0 0.0 W 1015.0 8.4 9.3 0.0
30-09-2020 22:01 5 94 9.2 1014.1 0.0 0.0 W 1015.0 8.3 9.2 0.0
30-09-2020 22:06 5 94 9.1 1014.1 0.0 0.0 W 1015.0 8.2 9.1 0.0
30-09-2020 22:11 5 94 8.8 1014.0 0.0 0.0 W 1014.9 7.9 8.8 0.0
30-09-2020 22:16 5 95 8.8 1014.0 0.0 0.0 W 1014.9 8.1 8.8 0.0
30-09-2020 22:21 5 95 8.7 1014.0 0.0 0.0 W 1014.9 8.0 8.7 0.0
30-09-2020 22:26 5 95 8.7 1014.0 0.0 0.0 W 1014.9 8.0 8.7 0.0
30-09-2020 22:31 5 95 8.8 1014.0 0.0 0.0 W 1014.9 8.1 8.8 0.0
30-09-2020 22:36 5 96 9.1 1014.0 0.0 0.0 W 1014.9 8.5 9.1 0.0
30-09-2020 22:41 5 96 9.0 1014.0 0.0 0.0 SW 1014.9 8.4 9.0 0.0
30-09-2020 22:46 5 96 8.7 1014.0 0.0 0.0 SW 1014.9 8.1 8.7 0.0
30-09-2020 22:51 5 96 8.5 1014.0 0.0 0.0 SW 1014.9 7.9 8.5 0.0
30-09-2020 22:56 5 96 8.4 1013.9 0.0 0.0 SW 1014.8 7.8 8.4 0.0
30-09-2020 23:01 5 96 8.3 1013.8 0.0 0.0 SW 1014.7 7.7 8.3 0.0
30-09-2020 23:06 5 96 8.2 1013.8 0.0 0.0 SW 1014.7 7.6 8.2 0.0
30-09-2020 23:11 5 96 8.2 1013.9 0.0 0.0 SW 1014.8 7.6 8.2 0.0
30-09-2020 23:16 5 96 8.1 1013.9 0.0 0.0 SW 1014.8 7.5 8.1 0.0
30-09-2020 23:21 5 96 8.0 1013.9 0.0 0.0 SW 1014.8 7.4 8.0 0.0
30-09-2020 23:26 5 96 8.0 1013.7 0.0 0.0 SW 1014.6 7.4 8.0 0.0
30-09-2020 23:31 5 96 8.0 1013.5 0.0 0.0 SW 1014.4 7.4 8.0 0.0
30-09-2020 23:36 5 96 7.9 1013.6 0.0 0.0 SW 1014.5 7.3 7.9 0.0
30-09-2020 23:41 5 96 7.8 1013.6 0.0 0.0 SW 1014.5 7.2 7.8 0.0
30-09-2020 23:46 5 96 7.8 1013.6 0.0 0.0 SW 1014.5 7.2 7.8 0.0
30-09-2020 23:51 5 96 7.8 1013.4 0.0 0.0 SW 1014.3 7.2 7.8 0.0
30-09-2020 23:56 5 96 7.7 1013.4 0.0 0.0 SW 1014.3 7.1 7.7 0.0

 

 Tagesdaten                                                            Tabelle: 08 : 00 UHR

STATIONHÖHELUFTD.TEMP.T-MinT-MaxU%RR1RR12SSSDDFFFXWetter+WolkenBöen
UFS TW Ems 0 1013.1 15.7 15.3 16.2 88 ---- --- --- S 29 --- --- ---
UFS Deutsche Bucht 0 ------ --- --- --- --- ---- --- --- -- --- --- --- ---
Helgoland 4 1014.4 14.4 14.2 15.9 97 0.0 0 --- S 16 24 Dunst oder flacher Nebel ---
List/Sylt 26 1014.6 14.4 13.3 14.6 80 0.0 1 0 SO 15 30 --- ---
Schleswig 43 1015.6 13.2 12.7 15.0 99 0.0 0 --- S 4 14 Dunst oder flacher Nebel ---
Leuchtturm Kiel 5 1015.9 13.3 13.2 16.1 91 ---- --- --- SW 14 24 --- ---
Kiel 27 1016.1 13.2 13.2 15.5 95 0.0 0 --- SW 6 10 Dunst oder flacher Nebel ---
Fehmarn 3 1016.3 13.9 13.5 15.1 91 0.0 0 --- S 5 10 --- ---
Arkona 42 1017.3 13.3 12.8 14.9 92 0.0 0 --- O 3 8 wolkenlos ---
Norderney 11 1014.3 12.7 11.2 15.6 95 0.0 0 --- S 15 24 Dunst oder flacher Nebel ---
Leuchtt. Alte Weser 32 1014.7 12.7 12.5 15.5 100 ---- --- --- S 25 --- --- ---
Cuxhaven 5 1015.4 12.0 11.3 13.6 99 0.0 0 --- S 8 16 Regen ---
Hamburg-Flh. 11 1016.1 13.5 13.0 14.6 91 0.0 0 0 S 7 15 stark bewölkt ---
Schwerin 59 1016.9 8.6 8.5 14.2 98 0.0 0 --- S 4 9 --- ---
Rostock 4 1016.9 10.8 10.5 15.1 90 0.0 0 --- SO 10 17 --- ---
Greifswald 2 1017.2 7.5 7.0 11.8 99 0.0 0 0 W 3 6 Nebel ---
Emden 0 1014.6 12.6 9.8 12.7 98 0.1 0 --- S 9 18 --- ---
Bremen-Flh. 5 1015.6 12.6 12.5 14.1 97 0.0 0 0 SO 7 11 Dunst oder flacher Nebel ---
Lüchow 17 1017.1 7.1 6.9 11.5 97 0.0 0 --- SO 4 6 Nebel ---
Marnitz 81 1017.1 6.5 5.4 11.6 99 0.0 0 --- SW 2 7 --- ---
Waren 70 1017.2 8.2 8.0 13.2 97 0.0 0 --- NO 3 8 Nebel ---
Neuruppin 38 1017.4 6.0 5.5 12.0 97 0.0 0 --- - 0 3 --- ---
Angermünde 56 1017.1 9.9 8.0 12.7 100 0.0 0 0 NW 4 8 Nebel ---
Münster/Osnabr.-Flh. 48 1015.9 11.4 11.3 13.9 98 0.0 1 0 SO 6 9 Regen ---
Hannover-Flh. 59 1016.4 13.7 13.0 15.1 98 0.0 0 0 S 5 5 Dunst oder flacher Nebel ---
Magdeburg 76 1017.6 6.6 6.0 14.4 97 0.0 0 --- SO 3 5 wolkenlos ---
Potsdam 81 1017.3 8.5 8.1 13.3 98 0.0 0 0 NW 4 8 Nebel ---
Berlin-Tegel 37 1017.0 7.9 6.2 14.1 99 0.0 0 0 - 0 4 Nebel ---
Berlin-Tempelhof 48 1017.0 8.1 7.8 13.9 96 0.0 0 --- W 3 5 --- ---
Berlin-Dahlem 51 1017.1 7.2 7.0 12.1 --- ---- 0 0 SO 4 --- heiter ---
Lindenberg 91 1016.9 8.2 7.6 12.8 98 0.0 0 --- NW 8 10 Nebel ---
Düsseldorf-Flh. 45 1016.0 12.9 11.7 13.1 95 0.0 1 0 SO 15 24 Dunst oder flacher Nebel ---
Essen 150 1015.9 12.6 11.3 12.8 98 0.0 0 --- S 11 16 --- ---
Kahler Asten 839 ------ 8.6 7.0 9.3 97 0.0 0 0 SW 10 10 Dunst oder flacher Nebel ---
Bad Lippspringe 157 1016.5 10.8 10.6 13.1 100 0.0 1 --- W 5 11 Nebel ---
Fritzlar 174 1017.3 11.3 11.1 13.1 93 ---- 0 0 S 4 --- Dunst oder flacher Nebel ---
Brocken 1142 ------ 8.1 6.2 8.8 100 ---- --- 0 W 12 15 Nebel ---
Leipzig-Flh. 142 1017.7 8.8 7.9 13.8 95 0.0 0 0 S 11 13 heiter ---
Dresden-Flh. 227 1017.9 7.8 6.9 13.1 92 0.0 0 0 SW 7 11 heiter ---
Cottbus 69 1017.0 6.6 5.5 11.5 98 0.0 0 --- W 2 7 --- ---
Görlitz 238 1016.8 10.0 9.4 12.5 89 0.0 0 --- W 7 12 --- ---
Aachen 231 1015.7 13.1 12.8 14.6 95 0.0 1 --- SW 3 17 --- ---
Nürburg 485 1016.2 11.6 10.4 11.9 98 0.0 0 --- SO 7 10 --- ---
Köln/Bonn-Flh. 92 1016.5 12.2 11.3 12.2 97 0.0 1 0 O 5 9 Regen ---
Gießen/Wettenberg 203 1017.6 10.7 10.6 13.4 97 0.0 0 --- W 6 12 Dunst oder flacher Nebel ---
Wasserkuppe 921 ------ 8.4 8.2 9.2 98 0.0 1 0 SW 12 17 Nebel ---
Meiningen 450 1017.7 10.7 10.3 11.9 100 0.0 0 --- S 6 11 Regen ---
Erfurt 316 1017.4 11.2 8.4 11.7 93 0.0 0 0 S 10 12 bedeckt ---
Gera 311 1018.3 7.1 6.5 14.0 99 0.0 0 --- S 13 17 Nebel ---
Fichtelberg 1213 ------ 5.5 3.5 6.1 87 ---- --- 0 NW 15 15 wolkenlos ---
Trier 265 1016.5 13.2 12.2 13.3 98 0.0 4 --- S 2 5 Nebel ---
Hahn-Flh. 497 1016.9 10.6 9.7 11.8 100 0.0 0 --- SO 10 21 --- ---
Frankfurt/M-Flh. 112 1017.6 11.7 10.6 13.4 97 0.0 1 0 SW 4 11 Dunst oder flacher Nebel ---
OF-Wetterpark 119 1017.6 11.8 11.5 12.9 94 0.0 0 --- W 4 13 Dunst oder flacher Nebel ---
Würzburg 268 1018.3 11.3 10.9 11.9 91 0.0 0 --- NW 2 7 --- ---
Bamberg 239 1018.0 11.4 11.4 12.7 96 0.0 1 --- S 6 8 Dunst oder flacher Nebel ---
Hof 567 1018.2 9.0 6.5 10.5 97 0.0 0 --- SO 6 9 Dunst oder flacher Nebel ---
Weiden 438 1018.5 9.0 8.9 11.1 97 0.0 0 --- NO 5 6 Nebel ---
Saarbrücken-Flh. 320 1017.1 12.1 10.0 13.1 98 0.2 0 0 S 6 10 leichter Regen ---
Karlsruhe-Rheinst. 116 1018.1 9.0 8.9 13.9 97 0.0 0 --- - 0 8 wolkenlos ---
Mannheim 96 1017.8 11.9 11.9 13.1 92 0.0 0 --- S 4 9 --- ---
Stuttgart-Flh. 371 1018.5 9.0 8.7 12.4 91 0.0 0 --- SW 2 4 Nebel ---
Öhringen 276 1017.9 11.8 10.8 12.1 93 0.0 0 --- W 2 5 --- ---
Nürnberg-Flh. 314 1018.2 11.1 10.9 11.8 96 0.0 0 0 O 5 8 bedeckt ---
Regensburg 366 1018.4 10.9 10.5 11.9 93 0.0 0 --- N 4 8 --- ---
Straubing 351 1018.5 11.0 10.9 12.3 94 0.0 0 --- SW 3 11 Dunst oder flacher Nebel ---
Großer Arber 1436 ------ 4.1 3.6 5.1 100 0.0 0 4 W 17 26 Nebel ---
Lahr 155 1018.2 9.1 6.9 13.1 97 0.0 0 --- S 6 9 --- ---
Freudenstadt 797 ------ 6.3 5.3 8.4 100 0.0 0 0 - 0 5 Nebel ---
Stötten 734 1018.3 8.9 8.4 8.9 89 0.0 0 0 SW 6 10 --- ---
Augsburg 462 1018.7 9.5 9.5 11.3 96 0.0 0 --- NW 2 4 Dunst oder flacher Nebel ---
München-Flh. 444 1018.6 10.1 9.9 11.3 93 0.0 0 0 S 3 9 stark bewölkt ---
Fürstenzell 476 1018.3 10.3 10.0 11.6 97 0.0 0 --- W 8 14 Dunst oder flacher Nebel ---
Feldberg/Schw. 1486 ------ 7.4 4.3 8.0 35 0.0 0 24 W 4 12 --- ---
Konstanz 443 1018.4 10.1 8.8 12.1 98 0.0 0 --- NW 5 8 Nebel ---
Kempten 705 1018.4 8.7 8.0 10.1 99 0.0 2 0 SO 5 8 Dunst oder flacher Nebel ---
Oberstdorf 806 ------ 8.9 8.6 10.0 99 0.0 1 0 S 3 5 --- ---
Zugspitze 2960 ------ -1.0 -3.1 -1.0 98 ---- --- 50 N 14 32 gefrierender Nebel ---
Hohenpeißenberg 977 ------ 7.7 7.1 8.2 91 0.0 0 0 S 5 8 Regen ---

                                                                                             Tabelle: 20 : 00 UHR  

STATIONHÖHELUFTD.TEMP.T-MinT-MaxU%RR1RR12SSSDDFFFXWetter+WolkenBöen
UFS TW Ems 0 1010.5 17.0 14.9 17.1 85 ---- --- --- SO 36 --- --- ---
UFS Deutsche Bucht 26 ------ --- --- --- --- ---- --- --- -- --- --- --- ---
Helgoland 4 1012.0 16.7 14.1 16.7 85 0.0 0 --- SO 18 23 --- ---
List/Sylt 26 1012.8 15.1 13.0 16.3 92 0.0 0 0 SO 18 27 --- ---
Schleswig 43 1013.6 14.7 12.9 17.8 90 0.0 0 --- O 7 10 wolkenlos ---
Leuchtturm Kiel 5 1014.0 16.4 13.1 17.1 75 ---- --- --- SO 21 27 --- ---
Kiel 27 1013.8 14.7 13.2 17.9 91 0.0 0 --- O 7 10 wolkenlos ---
Fehmarn 3 1014.6 13.2 13.2 18.9 97 0.0 0 --- O 7 12 wolkenlos ---
Arkona 42 1015.8 14.7 13.2 17.8 91 0.0 0 --- O 5 17 wolkenlos ---
Norderney 11 1011.5 16.0 12.6 17.6 82 0.0 0 --- SO 14 22 leichter Regen ---
Leuchtt. Alte Weser 32 1012.3 17.2 12.5 17.8 83 ---- --- --- SO 18 --- --- ---
Cuxhaven 5 1012.8 16.5 12.0 19.6 81 0.0 0 --- SO 11 19 wolkenlos ---
Hamburg-Flh 11 ------ --- --- --- --- ---- --- --- -- --- --- --- ---
Schwerin 59 1014.3 14.0 8.6 19.4 82 0.0 0 --- O 6 8 wolkenlos ---
Rostock 4 1014.7 15.2 10.9 20.2 75 0.0 0 --- SO 6 12 wolkenlos ---
Greifswald 2 1015.3 12.6 7.5 18.0 95 0.0 0 0 NO 8 15 Dunst oder flacher Nebel ---
Emden 0 1011.5 15.5 12.5 17.8 88 0.0 0 --- SO 12 22 leichter Regen ---
Bremen-Flh. 5 1012.8 15.6 12.5 19.3 82 0.0 0 0 O 9 13 gering bewölkt ---
Lüchow 17 1014.3 11.6 6.9 18.6 94 0.0 0 --- NO 3 6 wolkenlos ---
Marnitz 81 1014.5 12.1 6.3 18.9 90 0.0 0 --- SW 5 7 wolkenlos ---
Waren 70 1014.5 14.6 8.2 19.2 84 0.0 0 --- NO 6 9 --- ---
Neuruppin 38 1014.5 12.3 6.0 19.8 89 0.0 0 --- - 0 4 --- ---
Angermünde 56 1014.5 13.1 9.9 18.3 95 0.0 0 0 N 3 5 --- ---
Münster/Osnabr.-Flh. 48 1011.9 16.9 11.4 19.7 84 0.0 0 0 O 3 8 leichter Regen ---
Hannover-Flh. 59 1013.4 14.7 13.6 20.1 87 0.0 0 0 O 7 13 gering bewölkt ---
Magdeburg 76 1014.4 12.7 6.7 18.9 89 0.0 0 --- S 2 5 wolkenlos ---
Potsdam 81 1014.3 13.8 8.3 19.8 81 0.0 0 --- N 9 10 wolkenlos ---
Berlin-Tegel 37 1014.3 16.0 7.5 20.5 76 0.0 0 0 O 5 8 gering bewölkt ---
Berlin-Tempelhof 48 1014.3 15.4 8.1 21.1 79 0.0 0 --- O 5 11 --- ---
Berlin-Dahlem 51 1014.3 12.8 7.2 20.0 --- ---- 0 0 SO 7 --- gering bewölkt ---
Lindenberg 91 1014.4 12.4 7.6 16.4 94 0.0 0 --- O 4 6 Dunst oder flacher Nebel ---
Düsseldorf-Flh. 45 1011.7 16.5 12.7 19.3 91 0.4 0 0 S 3 21 Regenschauer ---
Essen 150 1011.9 15.4 12.6 18.2 85 0.0 0 --- SO 8 14 --- ---
Kahler Asten 839 ------ 8.5 8.4 15.3 98 0.0 0 0 S 20 25 Nebel ---
Bad Lippspringe 157 1012.9 14.4 10.7 20.0 79 0.0 0 --- O 6 12 wolkenlos ---
Fritzlar 174 1013.9 12.9 10.8 16.7 89 ---- 0 0 W 4 --- bewölkt ---
Brocken 1142 ------ 8.0 8.0 11.7 100 ---- --- --- SW 8 16 Nebel ---
Leipzig-Flh. 142 1014.2 13.4 8.8 18.8 82 0.0 0 0 S 2 4 gering bewölkt ---
Dresden-Flh. 227 1014.3 13.4 7.8 17.5 77 0.0 0 0 N 5 8 gering bewölkt ---
Cottbus 69 1014.2 11.8 6.6 17.2 95 0.0 0 --- NO 3 6 --- ---
Görlitz 238 1014.5 11.1 9.9 14.6 96 0.0 --- --- NW 4 7 --- ---
Aachen 231 1011.3 15.8 13.0 17.7 86 0.0 1 --- S 8 17 Regen ---
Nürburg 485 1012.0 14.0 11.5 16.8 92 0.0 0 --- SO 9 14 Regen ---
Köln/Bonn-Flh. 92 1012.1 15.6 12.2 19.1 82 0.0 0 0 SO 19 28 gering bewölkt ---
Gießen/Wettenberg 203 1013.9 12.7 10.6 14.9 85 0.0 0 --- - 0 9 --- ---
Wasserkuppe 921 ------ 9.3 8.1 11.1 98 0.0 0 0 SO 21 28 Nebel ---
Meiningen 450 1014.4 12.6 10.7 13.9 88 0.0 0 --- S 7 12 --- ---
Erfurt 316 1014.2 13.4 11.3 16.6 85 0.0 0 0 NO 5 10 bewölkt ---
Gera 311 1014.2 13.4 7.1 17.9 79 0.0 0 --- O 9 15 wolkenlos ---
Fichtelberg 1213 ------ 7.1 5.4 11.5 95 ---- --- --- N 9 13 Dunst oder flacher Nebel ---
Trier 265 1011.9 15.0 13.2 19.2 83 0.0 0 --- O 4 10 --- ---
Hahn-Flh. 497 1012.8 12.6 10.5 15.3 94 0.0 0 --- SO 13 18 --- ---
Frankfurt/M-Flh. 112 1013.5 13.8 11.7 18.4 81 0.0 0 0 NO 9 15 gering bewölkt ---
OF-Wetterpark 119 1013.7 13.1 11.9 17.0 88 0.0 0 --- NO 4 12 --- ---
Würzburg 268 1014.1 14.6 11.3 17.4 83 0.0 0 --- O 10 18 --- ---
Bamberg 239 1014.5 10.9 10.9 16.2 96 0.0 0 --- SO 2 4 --- ---
Hof 567 1014.5 10.4 9.0 16.1 90 0.0 0 --- W 4 6 --- ---
Weiden 438 1014.6 10.7 9.0 16.6 87 0.0 0 --- S 2 5 --- ---
Saarbrücken-Flh. 320 1012.5 12.4 12.1 18.2 91 0.0 1 0 NO 8 9 gering bewölkt ---
Karlsruhe-Rheinst. 116 1012.5 15.8 9.0 20.4 75 0.0 0 --- NO 13 23 wolkenlos ---
Mannheim 96 1013.2 13.7 11.9 18.5 81 0.0 0 --- NO 3 9 wolkenlos ---
Stuttgart-Flh. 371 1012.9 13.3 9.0 18.0 82 0.0 0 --- NO 14 23 gering bewölkt ---
Öhringen 276 1013.3 13.7 11.8 17.6 83 0.0 0 --- O 9 17 --- ---
Nürnberg-Flh. 314 1014.2 12.5 11.1 16.1 87 0.0 0 0 NO 3 8 bewölkt ---
Regensburg 366 1014.5 11.4 10.8 17.2 91 0.0 0 --- N 3 5 wolkenlos ---
Straubing 351 1014.5 11.0 10.3 16.0 94 0.0 0 --- SW 4 5 --- ---
Großer Arber 1436 ------ 5.1 3.9 8.2 98 0.0 0 1 NW 8 13 wolkenlos ---
Lahr 155 1012.4 14.5 9.0 19.9 81 0.0 0 --- O 3 6 --- ---
Freudenstadt 797 ------ 11.8 5.5 16.0 84 0.0 0 0 O 7 14 --- ---
Stötten 734 1013.6 11.0 8.9 13.6 88 0.0 0 0 O 12 18 wolkenlos ---
Augsburg 462 1014.3 10.4 9.5 16.6 95 0.0 0 --- NO 6 9 wolkenlos ---
München-Flh. 444 1014.3 11.4 10.1 16.9 89 0.0 0 0 O 4 9 gering bewölkt ---
Fürstenzell 476 1014.2 12.5 10.3 16.1 74 0.0 0 --- NW 8 9   ---
Feldberg/Schw. 1486 ------ 9.0 7.0 11.8 87 0.0 0 19 S 15 23 wolkenlos ---
Konstanz 443 1012.2 14.5 10.1 19.6 80 0.0 0 --- W 5 7 wolkenlos ---
Kempten 705 1012.7 12.4 8.7 18.4 87 0.0 0 0 NO 4 10 wolkenlos ---
Oberstdorf 806 ------ 11.3 8.9 18.5 94 0.0 0 0 S 10 17 wolkenlos ---
Zugspitze 2960 ------ -0.8 -1.1 0.1 87 ---- --- --- W 16 28 wolkenlos ---
Hohenpeißenberg 977 ------ 10.7 --- --- 94 0.0 --- 0 NO 14 24 wolkenlos ---

 

  • Wetterzustand
  • Windrichtung und -geschwindigkeit
  • Luftdruck
  • relative Luftfeuchtigkeit
  • Sichtweite
  • Gesamtbedeckungsgrad
  • Niederschlag
  • Sonnenscheindauer

 Höhe:     m über NN
Luftd.:   auf Meereshöhe reduzierter Luftdruck in hPa
TEMP.:   Lufttemperatur in Grad Celsius
T-MIN:   Minimumtemperatur der Luft in 2m Höhe in Grad Celsius, von 18 UTC Vortag bis 06 UTC heute
T-MAX:  Maximumtemperatur der Luft in 2m Höhe in Grad Celsius, von 18 UTC Vortag bis 06 UTC heute
RR1:     Niederschlagsmenge, einstündig, mm ist gleich Liter pro
RR12:   Niederschlagsmenge, 12 stündig, 18 UTC Vortag bis 06 UTC heute in mm ist gleich Liter pro
SSS:     Gesamtschneehöhe
DD:      Windrichtung
FF:       Windgeschwindigkeit letztes 10-Minutenmittel in km/h
FX:       höchste Windspitze während der letzten Stunde in km/h
---:      Wert nicht vorhanden

 

2009-2020

Unwetterwarnungen

 

  Radarbild           

aktueller Radarfilm Deutschland

  Europa-Meteoalarm    

 

Waldbrandindex

ausgewähltes Produkt zur Leistung: